Time;durP1;ratioP1;P1;durP2;ratioP2;P2;SDS_P1;SDS_P2;PMS_P1;PMS_P2;Temp;Humidity;BMP_temperature;BMP_pressure;BME280_temperature;BME280_humidity;BME280_pressure;Samples;Min_cycle;Max_cycle;Signal;HPM_P1;HPM_P2
2023/01/31 00:01:19;;;;;;;74.07;41.50;;;102.60;2227.20;;;;;;5033501;28;20029;-70
2023/01/31 00:03:47;;;;;;;31.70;18.63;;;102.70;2227.20;;;;;;5033318;28;20406;-68
2023/01/31 00:06:18;;;;;;;35.88;21.58;;;102.70;2227.20;;;;;;5032969;28;20506;-68
2023/01/31 00:08:45;;;;;;;29.85;19.00;;;102.70;2227.20;;;;;;5033000;28;20028;-58
2023/01/31 00:11:12;;;;;;;45.00;25.85;;;102.70;2227.20;;;;;;5033344;28;20108;-56
2023/01/31 00:13:38;;;;;;;48.83;32.03;;;102.70;2227.20;;;;;;5033177;28;20025;-70
2023/01/31 00:16:04;;;;;;;87.07;50.42;;;102.70;2227.20;;;;;;5032869;28;20415;-69
2023/01/31 00:18:30;;;;;;;42.28;24.30;;;102.70;2227.20;;;;;;5032733;28;20057;-71
2023/01/31 00:20:56;;;;;;;35.00;20.45;;;102.70;2227.20;;;;;;5032943;28;20053;-69
2023/01/31 00:23:22;;;;;;;35.45;22.80;;;102.70;2227.20;;;;;;5032771;28;20126;-59
2023/01/31 00:25:47;;;;;;;19.75;13.18;;;102.80;2227.20;;;;;;5032823;28;20474;-58
2023/01/31 00:28:13;;;;;;;19.92;11.95;;;102.80;2227.20;;;;;;5032764;28;20029;-58
2023/01/31 00:30:39;;;;;;;19.45;11.65;;;102.80;2227.20;;;;;;5032740;28;20053;-61
2023/01/31 00:33:04;;;;;;;17.55;10.00;;;102.80;2227.20;;;;;;5032502;28;20029;-70
2023/01/31 00:35:30;;;;;;;35.83;21.02;;;102.80;2227.20;;;;;;5032585;28;20408;-64
2023/01/31 00:37:56;;;;;;;34.17;22.77;;;102.70;2227.20;;;;;;5032447;28;20041;-67
2023/01/31 00:40:21;;;;;;;26.70;16.25;;;102.80;2227.20;;;;;;5032601;28;20464;-60
2023/01/31 00:42:47;;;;;;;34.83;17.77;;;102.70;2227.20;;;;;;5032795;28;20029;-69
2023/01/31 00:45:13;;;;;;;30.33;17.70;;;102.80;2227.20;;;;;;5032296;28;20357;-58
2023/01/31 00:47:38;;;;;;;25.30;14.98;;;102.80;2227.20;;;;;;5032479;28;20037;-71
2023/01/31 00:50:05;;;;;;;18.40;11.57;;;102.80;2227.20;;;;;;5031994;28;20029;-60
2023/01/31 00:52:30;;;;;;;36.50;22.60;;;102.80;2227.20;;;;;;5032422;28;20033;-58
2023/01/31 00:54:56;;;;;;;27.08;17.98;;;102.80;2227.20;;;;;;5032231;28;20460;-57
2023/01/31 00:57:22;;;;;;;33.85;23.02;;;102.70;2227.20;;;;;;5032111;28;20041;-65
2023/01/31 00:59:48;;;;;;;18.30;10.18;;;102.70;2227.20;;;;;;5032440;28;20570;-71
2023/01/31 01:02:13;;;;;;;47.78;31.23;;;102.80;2227.20;;;;;;5031959;28;20029;-72
2023/01/31 01:04:39;;;;;;;24.55;16.55;;;102.80;2227.20;;;;;;5032162;28;20183;-71
2023/01/31 01:07:05;;;;;;;17.52;10.75;;;102.90;2227.20;;;;;;5032341;28;20025;-58
2023/01/31 01:09:31;;;;;;;18.45;13.70;;;102.90;2227.20;;;;;;5032205;28;20069;-57
2023/01/31 01:11:56;;;;;;;19.50;15.15;;;103.00;2227.20;;;;;;5032052;28;20108;-57
2023/01/31 01:14:22;;;;;;;33.60;25.33;;;103.10;2227.20;;;;;;5031917;28;20025;-58
2023/01/31 01:16:48;;;;;;;14.95;12.05;;;103.10;2227.20;;;;;;5031970;28;20080;-57
2023/01/31 01:19:18;;;;;;;15.00;9.40;;;103.00;2227.20;;;;;;5031735;28;20041;-70
2023/01/31 01:21:44;;;;;;;11.25;6.20;;;103.10;2227.20;;;;;;5031754;28;20030;-58
2023/01/31 01:24:18;;;;;;;45.75;33.92;;;103.00;2227.20;;;;;;5032012;28;20032;-56
2023/01/31 01:26:45;;;;;;;14.25;8.35;;;103.00;2227.20;;;;;;5031730;28;20067;-57
2023/01/31 01:29:11;;;;;;;35.58;28.25;;;103.00;2227.20;;;;;;5031671;28;20025;-57
2023/01/31 01:31:38;;;;;;;20.08;11.73;;;102.90;2227.20;;;;;;5031514;28;20049;-57
2023/01/31 01:34:14;;;;;;;14.18;8.38;;;102.90;2227.20;;;;;;5031372;28;20467;-69
2023/01/31 01:36:40;;;;;;;27.23;17.77;;;102.80;2227.20;;;;;;5031665;28;20147;-70
2023/01/31 01:39:10;;;;;;;13.27;8.48;;;102.90;2227.20;;;;;;5031124;28;20045;-58
2023/01/31 01:41:37;;;;;;;32.67;23.48;;;102.80;2227.20;;;;;;5031431;28;20032;-58
2023/01/31 01:44:24;;;;;;;12.18;8.13;;;102.80;2227.20;;;;;;5031072;28;20040;-57
2023/01/31 01:46:51;;;;;;;13.18;9.52;;;102.80;2227.20;;;;;;5031241;28;20080;-57
2023/01/31 01:49:36;;;;;;;13.13;6.97;;;102.80;2227.20;;;;;;5031186;28;20072;-57
2023/01/31 01:52:06;;;;;;;8.35;5.05;;;102.80;2227.20;;;;;;5031131;28;20113;-57
2023/01/31 01:54:44;;;;;;;7.65;3.55;;;102.90;2227.20;;;;;;5031179;28;20052;-59
2023/01/31 01:57:14;;;;;;;9.98;5.03;;;103.00;2227.20;;;;;;5031051;28;20033;-58
2023/01/31 01:59:45;;;;;;;10.18;5.95;;;103.00;2227.20;;;;;;5031220;28;20026;-57
2023/01/31 02:02:12;;;;;;;9.27;5.22;;;103.10;2227.20;;;;;;5030622;28;20029;-57
2023/01/31 02:04:40;;;;;;;13.73;9.02;;;103.00;2227.20;;;;;;5031062;28;20112;-57
2023/01/31 02:07:07;;;;;;;10.80;6.93;;;103.00;2227.20;;;;;;5030777;28;20037;-57
2023/01/31 02:09:39;;;;;;;7.57;4.40;;;103.00;2227.20;;;;;;5030747;28;20476;-57
2023/01/31 02:12:05;;;;;;;10.75;5.78;;;103.10;2227.20;;;;;;5030846;28;20082;-57
2023/01/31 02:14:31;;;;;;;10.10;5.15;;;103.10;2227.20;;;;;;5030996;28;20033;-57
2023/01/31 02:16:56;;;;;;;8.68;5.43;;;103.30;2227.20;;;;;;5031023;28;20025;-68
2023/01/31 02:19:38;;;;;;;6.63;4.60;;;103.30;2227.20;;;;;;5030399;28;20124;-58
2023/01/31 02:22:29;;;;;;;11.30;8.00;;;103.20;2227.20;;;;;;5030364;28;20514;-69
2023/01/31 02:25:13;;;;;;;8.23;4.90;;;103.30;2227.20;;;;;;5023494;28;20036;-58
2023/01/31 02:28:06;;;;;;;11.13;5.43;;;103.30;2227.20;;;;;;5030849;28;20026;-70
2023/01/31 02:30:58;;;;;;;12.00;7.00;;;103.30;2227.20;;;;;;5030496;28;20029;-58
2023/01/31 02:33:57;;;;;;;7.05;4.55;;;128.00;2252.80;;;;;;5030436;28;20037;-58
2023/01/31 02:36:46;;;;;;;7.95;4.93;;;103.30;2227.20;;;;;;5030376;28;20029;-57
2023/01/31 02:39:17;;;;;;;10.07;5.75;;;128.00;2252.80;;;;;;5030664;28;20120;-57
2023/01/31 02:42:03;;;;;;;7.50;4.60;;;103.30;2227.20;;;;;;5030498;28;20442;-58
2023/01/31 02:44:58;;;;;;;14.02;10.38;;;103.30;2227.20;;;;;;5030527;28;20096;-57
2023/01/31 02:47:57;;;;;;;18.48;15.15;;;103.20;2227.20;;;;;;5030205;28;20545;-59
2023/01/31 02:50:31;;;;;;;36.42;24.20;;;103.10;2227.20;;;;;;5030219;28;20014;-58
2023/01/31 02:52:58;;;;;;;94.45;59.92;;;103.00;2227.20;;;;;;5029966;28;20033;-58
2023/01/31 02:58:15;;;;;;;10.35;6.47;;;103.00;2227.20;;;;;;5030623;28;20469;-59
2023/01/31 03:00:44;;;;;;;12.70;8.55;;;103.00;2227.20;;;;;;5030532;28;20030;-60
2023/01/31 03:03:23;;;;;;;10.68;6.20;;;103.00;2227.20;;;;;;5030436;28;20048;-58
2023/01/31 03:06:08;;;;;;;8.00;4.50;;;103.10;2227.20;;;;;;5030384;28;20059;-57
2023/01/31 03:08:34;;;;;;;9.95;6.32;;;103.10;2227.20;;;;;;5030115;28;20490;-63
2023/01/31 03:11:04;;;;;;;8.30;4.88;;;103.20;2227.20;;;;;;5030249;28;20033;-57
2023/01/31 03:13:32;;;;;;;12.05;5.90;;;103.20;2227.20;;;;;;5032464;28;20026;-57
2023/01/31 03:19:12;;;;;;;7.22;4.43;;;128.10;2252.80;;;;;;5033857;28;20045;-58
2023/01/31 03:21:47;;;;;;;8.25;4.43;;;128.00;2252.80;;;;;;5033954;28;20045;-58
2023/01/31 03:24:15;;;;;;;11.25;4.93;;;128.00;2252.80;;;;;;5033918;28;20072;-58
2023/01/31 03:26:42;;;;;;;6.03;3.97;;;128.00;2252.80;;;;;;5034134;28;20025;-58
2023/01/31 03:29:12;;;;;;;10.20;5.35;;;128.00;2252.80;;;;;;5033875;28;20112;-58
2023/01/31 03:31:53;;;;;;;9.70;5.13;;;128.00;2252.80;;;;;;5034043;28;20044;-58
2023/01/31 03:34:19;;;;;;;9.95;4.53;;;128.00;2252.80;;;;;;5033860;28;20543;-58
2023/01/31 03:37:03;;;;;;;18.38;8.35;;;128.10;2252.80;;;;;;5033498;28;20018;-58
2023/01/31 03:39:41;;;;;;;8.93;5.15;;;128.10;2252.80;;;;;;5033632;28;20543;-58
2023/01/31 03:42:24;;;;;;;9.32;5.13;;;128.20;2252.80;;;;;;5034051;28;20021;-57
2023/01/31 03:44:55;;;;;;;12.17;6.27;;;128.20;2252.80;;;;;;5033989;28;20432;-57
2023/01/31 03:47:49;;;;;;;11.13;5.95;;;128.20;2252.80;;;;;;5033433;28;20805;-58
2023/01/31 03:50:21;;;;;;;6.25;4.55;;;128.20;2252.80;;;;;;5030852;28;20151;-58
2023/01/31 03:53:04;;;;;;;9.50;6.30;;;128.30;2252.80;;;;;;5033366;28;20414;-57
2023/01/31 03:55:36;;;;;;;7.85;4.72;;;128.30;2252.80;;;;;;5033421;28;20033;-57
2023/01/31 03:58:05;;;;;;;8.68;5.22;;;128.30;2252.80;;;;;;5033270;28;20033;-57
2023/01/31 04:00:35;;;;;;;8.68;4.28;;;128.30;2252.80;;;;;;5033278;28;20025;-57
2023/01/31 04:03:11;;;;;;;11.23;5.00;;;128.40;2252.80;;;;;;5033632;28;20100;-57
2023/01/31 04:05:37;;;;;;;10.93;6.57;;;128.40;2252.80;;;;;;5033251;28;20555;-58
2023/01/31 04:08:03;;;;;;;7.13;4.68;;;128.30;2252.80;;;;;;5033185;28;20112;-58
2023/01/31 04:10:29;;;;;;;9.63;6.15;;;128.30;2252.80;;;;;;5033207;28;20057;-70
2023/01/31 04:12:54;;;;;;;9.50;5.53;;;128.40;2252.80;;;;;;5033004;28;20415;-57
2023/01/31 04:15:20;;;;;;;10.27;5.93;;;128.30;2252.80;;;;;;5033175;28;20028;-57
2023/01/31 04:17:46;;;;;;;7.90;5.20;;;128.30;2252.80;;;;;;5033102;28;20100;-57
2023/01/31 04:20:12;;;;;;;9.27;4.95;;;128.20;2252.80;;;;;;5032822;28;20100;-58
2023/01/31 04:22:38;;;;;;;11.50;6.75;;;128.30;2252.80;;;;;;5032997;28;20034;-57
2023/01/31 04:25:05;;;;;;;9.32;5.03;;;128.30;2252.80;;;;;;5032196;28;20017;-58
2023/01/31 04:27:30;;;;;;;8.02;5.13;;;128.20;2252.80;;;;;;5032816;28;20037;-57
2023/01/31 04:29:56;;;;;;;9.68;5.38;;;128.20;2252.80;;;;;;5032512;28;20029;-57
2023/01/31 04:32:22;;;;;;;11.13;5.60;;;128.20;2252.80;;;;;;5032638;28;20060;-58
2023/01/31 04:34:48;;;;;;;12.02;6.22;;;128.20;2252.80;;;;;;5032682;28;20112;-57
2023/01/31 04:37:14;;;;;;;13.00;7.57;;;128.20;2252.80;;;;;;5032564;28;20040;-58
2023/01/31 04:39:40;;;;;;;8.13;4.60;;;128.20;2252.80;;;;;;5032726;28;20108;-58
2023/01/31 04:42:05;;;;;;;10.75;6.18;;;128.20;2252.80;;;;;;5032452;28;20076;-58
2023/01/31 04:44:31;;;;;;;12.00;5.90;;;128.30;2252.80;;;;;;5032715;28;20033;-57
2023/01/31 04:46:57;;;;;;;9.60;4.95;;;128.20;2252.80;;;;;;5034420;28;20402;-58
2023/01/31 04:49:22;;;;;;;9.80;4.93;;;128.30;2252.80;;;;;;5032477;28;20120;-58
2023/01/31 04:51:48;;;;;;;9.40;5.22;;;128.40;2252.80;;;;;;5032389;28;20051;-58
2023/01/31 04:54:14;;;;;;;11.52;6.00;;;128.30;2252.80;;;;;;5032422;28;20490;-57
2023/01/31 04:56:40;;;;;;;19.20;6.88;;;128.30;2252.80;;;;;;5032463;28;20387;-57
2023/01/31 04:59:05;;;;;;;9.75;5.82;;;128.40;2252.80;;;;;;5032160;28;20041;-58
2023/01/31 05:01:31;;;;;;;11.38;5.63;;;128.40;2252.80;;;;;;5032197;28;20038;-57
2023/01/31 05:03:57;;;;;;;8.80;5.15;;;128.40;2252.80;;;;;;5032487;28;20382;-57
2023/01/31 05:06:22;;;;;;;9.13;4.97;;;128.40;2252.80;;;;;;5032074;28;20032;-58
2023/01/31 05:08:48;;;;;;;10.02;5.60;;;128.50;2252.80;;;;;;5032224;28;20040;-57
2023/01/31 05:11:14;;;;;;;7.97;4.50;;;128.50;2252.80;;;;;;5031914;28;20072;-58
2023/01/31 05:13:40;;;;;;;8.35;4.53;;;128.60;2252.80;;;;;;5031956;28;20467;-58
2023/01/31 05:16:09;;;;;;;8.48;4.43;;;128.60;2252.80;;;;;;5031876;28;20079;-58
2023/01/31 05:18:35;;;;;;;9.38;4.18;;;128.50;2252.80;;;;;;5031586;28;20037;-58
2023/01/31 05:21:03;;;;;;;6.38;4.60;;;128.50;2252.80;;;;;;5031919;28;20031;-57
2023/01/31 05:23:30;;;;;;;6.78;3.70;;;128.60;2252.80;;;;;;5031823;28;20108;-57
2023/01/31 05:25:56;;;;;;;9.00;4.82;;;128.60;2252.80;;;;;;5031637;28;20029;-58
2023/01/31 05:28:24;;;;;;;8.50;4.47;;;128.60;2252.80;;;;;;5031601;28;20026;-58
2023/01/31 05:30:50;;;;;;;7.78;4.07;;;128.60;2252.80;;;;;;5031489;28;20022;-57
2023/01/31 05:33:15;;;;;;;6.28;4.10;;;128.60;2252.80;;;;;;5031568;28;20033;-57
2023/01/31 05:35:41;;;;;;;6.75;3.90;;;128.60;2252.80;;;;;;5031276;28;20029;-57
2023/01/31 05:38:08;;;;;;;6.82;3.33;;;128.50;2252.80;;;;;;5030916;28;20033;-58
2023/01/31 05:40:34;;;;;;;8.57;4.53;;;128.60;2252.80;;;;;;5031298;28;20057;-57
2023/01/31 05:43:00;;;;;;;6.88;3.83;;;128.60;2252.80;;;;;;5031428;28;20029;-57
2023/01/31 05:45:26;;;;;;;7.80;4.13;;;128.60;2252.80;;;;;;5031255;28;20037;-57
2023/01/31 05:47:52;;;;;;;8.52;4.40;;;128.60;2252.80;;;;;;5031014;28;20388;-58
2023/01/31 05:50:19;;;;;;;7.25;4.32;;;128.60;2252.80;;;;;;5031407;28;20049;-57
2023/01/31 05:52:59;;;;;;;7.22;4.13;;;128.60;2252.80;;;;;;5031075;28;20061;-57
2023/01/31 05:55:26;;;;;;;8.80;3.75;;;128.50;2252.80;;;;;;5031009;28;20074;-58
2023/01/31 05:57:55;;;;;;;9.75;5.28;;;128.60;2252.80;;;;;;5031028;28;20065;-58
2023/01/31 06:00:22;;;;;;;7.75;5.28;;;128.50;2252.80;;;;;;5031013;28;20028;-58
2023/01/31 06:02:48;;;;;;;8.70;5.20;;;128.60;2252.80;;;;;;5031021;28;20035;-58
2023/01/31 06:05:14;;;;;;;8.93;5.13;;;128.50;2252.80;;;;;;5030562;28;20391;-58
2023/01/31 06:07:40;;;;;;;8.95;4.10;;;128.50;2252.80;;;;;;5049776;28;20097;-58
2023/01/31 06:10:08;;;;;;;10.43;4.88;;;128.60;2252.80;;;;;;5050776;28;20538;-57
2023/01/31 06:12:34;;;;;;;7.28;4.13;;;128.60;2252.80;;;;;;5050414;28;20113;-56
2023/01/31 06:15:00;;;;;;;10.68;5.38;;;128.60;2252.80;;;;;;5050716;28;20028;-60
2023/01/31 06:17:26;;;;;;;8.10;4.97;;;128.70;2252.80;;;;;;5050626;28;20112;-57
2023/01/31 06:19:52;;;;;;;9.93;5.13;;;128.70;2252.80;;;;;;5050556;28;20167;-57
2023/01/31 06:22:19;;;;;;;8.82;4.38;;;128.80;2252.80;;;;;;5050516;28;20029;-56
2023/01/31 06:24:45;;;;;;;10.88;5.45;;;128.70;2252.80;;;;;;5050330;28;20029;-57
2023/01/31 06:27:10;;;;;;;19.95;10.90;;;128.70;2252.80;;;;;;5050638;28;20103;-57
2023/01/31 06:29:36;;;;;;;23.83;13.38;;;128.70;2252.80;;;;;;5050524;28;20112;-58
2023/01/31 06:32:02;;;;;;;18.20;8.98;;;128.80;2252.80;;;;;;5050287;28;20032;-57
2023/01/31 06:34:28;;;;;;;17.75;14.98;;;128.70;2252.80;;;;;;5050444;28;20564;-56
2023/01/31 06:36:54;;;;;;;13.27;10.00;;;128.80;2252.80;;;;;;5050109;28;20048;-57
2023/01/31 06:39:20;;;;;;;19.23;10.32;;;128.70;2252.80;;;;;;5050515;28;20087;-56
2023/01/31 06:41:45;;;;;;;9.45;5.88;;;128.80;2252.80;;;;;;5050275;28;20470;-57
2023/01/31 06:44:11;;;;;;;16.15;12.98;;;128.70;2252.80;;;;;;5050239;28;20025;-57
2023/01/31 06:46:37;;;;;;;8.98;6.18;;;128.70;2252.80;;;;;;5050295;28;20021;-58
2023/01/31 06:49:03;;;;;;;11.75;5.68;;;128.70;2252.80;;;;;;5049565;28;20064;-56
2023/01/31 06:51:29;;;;;;;12.60;6.22;;;128.80;2252.80;;;;;;5050178;28;20100;-57
2023/01/31 06:53:55;;;;;;;11.27;7.43;;;128.70;2252.80;;;;;;5050234;28;20028;-57
2023/01/31 06:56:21;;;;;;;11.52;6.60;;;128.80;2252.80;;;;;;5050413;28;20032;-57
2023/01/31 06:58:47;;;;;;;14.25;8.13;;;128.80;2252.80;;;;;;5050199;28;20052;-70
2023/01/31 07:01:14;;;;;;;11.57;7.60;;;128.80;2252.80;;;;;;5049954;28;20032;-61
2023/01/31 07:03:41;;;;;;;24.15;14.75;;;128.80;2252.80;;;;;;5050508;28;20163;-69
2023/01/31 07:06:08;;;;;;;18.92;12.80;;;128.90;2252.80;;;;;;5032129;28;20032;-58
2023/01/31 07:08:34;;;;;;;10.57;7.25;;;153.60;2252.80;;;;;;5049899;28;20471;-58
2023/01/31 07:11:02;;;;;;;9.55;6.80;;;128.90;2252.80;;;;;;5050331;28;20028;-57
2023/01/31 07:13:28;;;;;;;12.02;7.57;;;153.70;2252.80;;;;;;5050213;28;20029;-58
2023/01/31 07:15:55;;;;;;;14.63;10.32;;;153.70;2252.80;;;;;;5049828;28;20541;-58
2023/01/31 07:18:20;;;;;;;11.52;7.95;;;153.70;2252.80;;;;;;5049798;28;20044;-58
2023/01/31 07:20:46;;;;;;;9.40;5.68;;;153.60;2252.80;;;;;;5049850;28;20029;-57
2023/01/31 07:23:12;;;;;;;7.78;5.03;;;153.80;2252.80;;;;;;5049964;28;20450;-68
2023/01/31 07:25:37;;;;;;;11.40;6.68;;;153.90;2252.80;;;;;;5049961;28;20028;-58
2023/01/31 07:28:03;;;;;;;9.98;5.57;;;154.00;2252.80;;;;;;5049812;28;20025;-58
2023/01/31 07:30:29;;;;;;;12.05;6.90;;;154.10;2252.80;;;;;;5050158;28;20115;-57
2023/01/31 07:32:55;;;;;;;11.00;5.63;;;154.10;2252.80;;;;;;5049748;28;20025;-58
2023/01/31 07:35:21;;;;;;;14.60;8.43;;;154.20;2252.80;;;;;;5049832;28;20017;-58
2023/01/31 07:37:50;;;;;;;20.88;13.48;;;179.50;2252.80;;;;;;5049192;28;20521;-68
2023/01/31 07:40:15;;;;;;;9.85;5.30;;;154.40;2252.80;;;;;;5049859;28;20021;-58
2023/01/31 07:42:42;;;;;;;10.63;6.20;;;154.30;2252.80;;;;;;5049919;28;20533;-58
2023/01/31 07:45:11;;;;;;;14.32;7.10;;;154.10;2252.80;;;;;;5049792;28;20021;-58
2023/01/31 07:47:37;;;;;;;12.57;8.00;;;154.10;2252.80;;;;;;5049473;28;20048;-58
2023/01/31 07:50:03;;;;;;;7.47;5.13;;;154.10;2252.80;;;;;;5049459;28;20498;-59
2023/01/31 07:52:31;;;;;;;14.07;8.13;;;154.10;2252.80;;;;;;5049650;28;20037;-58
2023/01/31 07:54:57;;;;;;;10.52;5.80;;;154.10;2252.80;;;;;;5049533;28;20112;-58
2023/01/31 07:57:22;;;;;;;11.02;7.00;;;154.10;2252.80;;;;;;5049667;28;20536;-58
2023/01/31 07:59:48;;;;;;;12.55;6.28;;;154.10;2252.80;;;;;;5050566;28;20352;-58
2023/01/31 08:05:01;;;;;;;8.90;5.50;;;154.20;2252.80;;;;;;5053469;28;20051;-58
2023/01/31 08:07:28;;;;;;;7.78;5.65;;;154.30;2252.80;;;;;;5053108;28;20021;-58
2023/01/31 08:09:54;;;;;;;9.00;5.65;;;154.30;2252.80;;;;;;5053014;28;20436;-69
2023/01/31 08:12:20;;;;;;;12.43;8.30;;;154.40;2252.80;;;;;;5053234;28;20033;-58
2023/01/31 08:14:45;;;;;;;10.10;5.88;;;154.40;2252.80;;;;;;5052731;28;20116;-58
2023/01/31 08:17:11;;;;;;;8.40;5.35;;;154.50;2252.80;;;;;;5053004;28;20029;-60
2023/01/31 08:19:37;;;;;;;15.35;7.63;;;154.50;2252.80;;;;;;5052824;28;20443;-70
2023/01/31 08:22:04;;;;;;;13.75;8.73;;;179.30;2252.80;;;;;;5052761;28;20025;-58
2023/01/31 08:24:30;;;;;;;19.67;10.57;;;179.20;2252.80;;;;;;5053082;28;20036;-69
2023/01/31 08:26:57;;;;;;;6.93;4.20;;;179.20;2252.80;;;;;;5052640;28;20472;-62
2023/01/31 08:29:23;;;;;;;11.45;5.32;;;179.20;2252.80;;;;;;5052706;28;20099;-60
2023/01/31 08:31:49;;;;;;;12.48;6.60;;;154.50;2252.80;;;;;;5053052;28;20025;-67
2023/01/31 08:34:16;;;;;;;6.30;3.60;;;154.50;2252.80;;;;;;5052592;28;20035;-58
2023/01/31 08:36:42;;;;;;;8.60;6.22;;;179.20;2252.80;;;;;;5052758;28;20021;-57
2023/01/31 08:39:08;;;;;;;9.88;5.22;;;179.30;2252.80;;;;;;5052484;28;20467;-74
2023/01/31 08:41:35;;;;;;;11.95;6.35;;;179.30;2252.80;;;;;;5052482;28;20033;-61
2023/01/31 08:44:03;;;;;;;9.20;6.47;;;179.20;2252.80;;;;;;5052558;28;20375;-60
2023/01/31 08:46:36;;;;;;;11.40;7.18;;;179.30;2252.80;;;;;;5052530;28;20119;-60
2023/01/31 08:49:04;;;;;;;13.98;7.93;;;179.40;2252.80;;;;;;5052328;28;20041;-61
2023/01/31 08:51:31;;;;;;;6.00;4.85;;;179.40;2252.80;;;;;;5052488;28;20048;-69
2023/01/31 08:53:56;;;;;;;15.63;9.30;;;179.40;2252.80;;;;;;5052261;28;20033;-65
2023/01/31 08:56:24;;;;;;;8.93;5.07;;;179.50;2252.80;;;;;;5052258;28;20036;-70
2023/01/31 08:58:52;;;;;;;17.00;8.20;;;179.60;2252.80;;;;;;5052159;28;20037;-66
2023/01/31 09:01:19;;;;;;;8.70;4.72;;;179.60;2252.80;;;;;;5052291;28;20025;-59
2023/01/31 09:03:46;;;;;;;10.00;4.18;;;179.70;2252.80;;;;;;5052175;28;20032;-59
2023/01/31 09:06:18;;;;;;;11.82;6.85;;;179.70;2252.80;;;;;;5052008;28;20029;-58
2023/01/31 09:08:44;;;;;;;6.80;5.25;;;179.70;2252.80;;;;;;5052022;28;20028;-59
2023/01/31 09:11:17;;;;;;;9.80;5.85;;;179.70;2252.80;;;;;;5051866;28;20418;-62
2023/01/31 09:13:44;;;;;;;12.60;7.53;;;179.70;2252.80;;;;;;5051743;28;20025;-60
2023/01/31 09:16:12;;;;;;;12.88;7.75;;;179.80;2252.80;;;;;;5052052;28;20040;-59
2023/01/31 09:18:39;;;;;;;11.25;6.22;;;179.90;2252.80;;;;;;5051685;28;20043;-60
2023/01/31 09:21:13;;;;;;;11.18;7.10;;;180.10;2252.80;;;;;;5051828;28;20048;-59
2023/01/31 09:23:40;;;;;;;8.63;4.55;;;204.80;2252.80;;;;;;5051648;28;20040;-59
2023/01/31 09:26:06;;;;;;;6.82;3.90;;;204.80;2252.80;;;;;;5051325;28;20032;-63
2023/01/31 09:28:32;;;;;;;19.08;8.98;;;180.10;2252.80;;;;;;5051738;28;20094;-61
2023/01/31 09:31:06;;;;;;;26.25;14.32;;;180.10;2252.80;;;;;;5051723;28;20032;-59
2023/01/31 09:33:33;;;;;;;12.82;6.88;;;179.90;2252.80;;;;;;5051495;28;20082;-60
2023/01/31 09:36:05;;;;;;;12.13;4.28;;;179.80;2252.80;;;;;;5051333;28;20047;-58
2023/01/31 09:38:32;;;;;;;12.60;7.43;;;179.60;2252.80;;;;;;5051319;28;20037;-58
2023/01/31 09:41:05;;;;;;;14.45;8.10;;;179.70;2252.80;;;;;;5051345;28;20021;-59
2023/01/31 09:43:40;;;;;;;27.58;17.67;;;179.60;2252.80;;;;;;5051334;28;20365;-59
2023/01/31 09:46:12;;;;;;;11.05;6.55;;;179.60;2252.80;;;;;;5051152;28;20029;-58
2023/01/31 09:48:43;;;;;;;10.88;6.72;;;179.60;2252.80;;;;;;5051087;28;20083;-59
2023/01/31 09:51:11;;;;;;;12.30;6.15;;;179.70;2252.80;;;;;;5050661;28;20020;-61
2023/01/31 09:53:40;;;;;;;21.90;11.65;;;179.60;2252.80;;;;;;5038640;28;20040;-62
2023/01/31 09:56:09;;;;;;;38.45;17.02;;;179.60;2252.80;;;;;;5040105;28;20021;-63
2023/01/31 09:59:05;;;;;;;11.75;7.13;;;179.80;2252.80;;;;;;5040266;28;20041;-64
2023/01/31 10:01:43;;;;;;;19.60;13.15;;;180.00;2252.80;;;;;;5048159;28;20021;-58
2023/01/31 10:04:22;;;;;;;29.98;19.60;;;180.10;2252.80;;;;;;5047866;28;20380;-62
2023/01/31 10:06:47;;;;;;;14.18;8.98;;;204.80;2252.80;;;;;;5048527;28;20345;-58
2023/01/31 10:09:32;;;;;;;17.75;11.23;;;204.80;2252.80;;;;;;5050761;28;20028;-63
2023/01/31 10:12:29;;;;;;;20.63;13.65;;;205.00;2252.80;;;;;;5051140;28;20048;-58
2023/01/31 10:15:02;;;;;;;14.30;7.97;;;205.10;2252.80;;;;;;5050587;28;20467;-58
2023/01/31 10:17:32;;;;;;;;;;;205.10;2252.80;;;;;;5052515;28;20028;-62
2023/01/31 10:20:19;;;;;;;11.32;7.93;;;205.10;2252.80;;;;;;5053318;28;19905;-59
2023/01/31 10:23:12;;;;;;;11.50;5.80;;;205.20;2252.80;;;;;;5051965;28;20390;-59
2023/01/31 10:25:43;;;;;;;17.58;10.95;;;205.30;2252.80;;;;;;5052516;28;20482;-60
2023/01/31 10:28:15;;;;;;;13.65;9.30;;;205.20;2252.80;;;;;;5052902;28;20475;-60
2023/01/31 10:30:47;;;;;;;11.75;5.65;;;205.10;2252.80;;;;;;5054019;28;20033;-61
2023/01/31 10:33:29;;;;;;;9.88;4.50;;;205.00;2252.80;;;;;;5053424;28;20083;-59
2023/01/31 10:35:59;;;;;;;18.42;8.77;;;204.80;2252.80;;;;;;5053018;28;20128;-59
2023/01/31 10:38:49;;;;;;;16.95;8.57;;;204.80;2252.80;;;;;;5052542;28;20467;-60
2023/01/31 10:41:24;;;;;;;8.48;4.93;;;204.80;2252.80;;;;;;5052604;28;20025;-58
2023/01/31 10:44:00;;;;;;;14.60;8.75;;;180.10;2252.80;;;;;;5048345;28;20368;-72
2023/01/31 10:46:26;;;;;;;11.93;7.10;;;204.80;2252.80;;;;;;5054122;28;20017;-60
2023/01/31 10:48:52;;;;;;;8.30;5.45;;;204.80;2252.80;;;;;;5051750;28;20507;-63
2023/01/31 10:51:28;;;;;;;7.82;4.65;;;204.80;2252.80;;;;;;5050130;28;20531;-63
2023/01/31 10:53:59;;;;;;;7.28;4.32;;;204.90;2252.80;;;;;;5055147;28;20040;-68
2023/01/31 10:56:35;;;;;;;13.38;6.78;;;205.00;2252.80;;;;;;5052373;28;20150;-59
2023/01/31 10:59:06;;;;;;;24.30;14.48;;;205.10;2252.80;;;;;;5049812;28;20109;-63
2023/01/31 11:01:35;;;;;;;60.85;31.48;;;205.10;2252.80;;;;;;5052779;28;20025;-63
2023/01/31 11:04:01;;;;;;;16.63;7.70;;;205.00;2252.80;;;;;;5054708;28;20021;-62
2023/01/31 11:06:27;;;;;;;11.90;8.95;;;205.00;2252.80;;;;;;5050601;28;20021;-60
2023/01/31 11:08:56;;;;;;;15.63;8.63;;;205.10;2252.80;;;;;;5050526;28;20041;-59
2023/01/31 11:11:24;;;;;;;30.02;20.85;;;205.10;2252.80;;;;;;5058524;28;20386;-63
2023/01/31 11:14:05;;;;;;;9.60;5.78;;;205.10;2252.80;;;;;;5053872;28;20064;-62
2023/01/31 11:16:34;;;;;;;11.07;6.45;;;205.20;2252.80;;;;;;5048748;28;20017;-63
2023/01/31 11:19:04;;;;;;;9.35;4.68;;;205.20;2252.80;;;;;;5048840;28;20063;-59
2023/01/31 11:21:33;;;;;;;13.02;6.88;;;205.20;2252.80;;;;;;5053548;28;20041;-58
2023/01/31 11:24:05;;;;;;;11.98;5.40;;;205.30;2252.80;;;;;;5053759;28;20017;-64
2023/01/31 11:26:35;;;;;;;7.07;4.15;;;205.40;2252.80;;;;;;5050008;28;20029;-63
2023/01/31 11:29:04;;;;;;;5.97;4.07;;;205.30;2252.80;;;;;;5051047;28;20104;-60
2023/01/31 11:31:37;;;;;;;8.13;5.35;;;205.20;2252.80;;;;;;5045067;28;20074;-59
2023/01/31 11:34:16;;;;;;;5.97;3.60;;;205.30;2252.80;;;;;;5049049;28;20044;-61
2023/01/31 11:36:44;;;;;;;6.20;4.50;;;205.30;2252.80;;;;;;5052002;28;20029;-66
2023/01/31 11:39:30;;;;;;;8.43;3.88;;;205.30;2252.80;;;;;;5052081;28;20056;-64
2023/01/31 11:42:03;;;;;;;10.95;6.40;;;205.20;2252.80;;;;;;5052102;28;20039;-64
2023/01/31 11:44:29;;;;;;;6.35;3.72;;;205.20;2252.80;;;;;;5053050;28;20017;-61
2023/01/31 11:46:59;;;;;;;9.68;5.85;;;205.10;2252.80;;;;;;5055256;28;20025;-63
2023/01/31 11:49:29;;;;;;;18.10;8.95;;;205.20;2252.80;;;;;;5054856;28;20037;-65
2023/01/31 11:51:59;;;;;;;38.10;19.13;;;205.20;2252.80;;;;;;5056739;28;20082;-66
2023/01/31 11:54:29;;;;;;;10.63;4.97;;;205.20;2252.80;;;;;;5060824;28;20075;-65
2023/01/31 11:56:56;;;;;;;34.53;19.17;;;205.20;2252.80;;;;;;5060140;28;20025;-64
2023/01/31 11:59:27;;;;;;;18.98;12.68;;;205.20;2252.80;;;;;;5053417;28;20037;-67
2023/01/31 12:01:55;;;;;;;47.15;27.05;;;205.20;2252.80;;;;;;5052262;28;20031;-59
2023/01/31 12:04:39;;;;;;;16.30;9.65;;;205.20;2252.80;;;;;;5053044;28;20044;-59
2023/01/31 12:07:21;;;;;;;15.95;8.25;;;205.20;2252.80;;;;;;5055442;28;20037;-65
2023/01/31 12:09:47;;;;;;;19.95;12.00;;;205.30;2252.80;;;;;;5061571;28;20024;-59
2023/01/31 12:12:50;;;;;;;16.42;10.30;;;205.30;2252.80;;;;;;5060494;28;20041;-60
2023/01/31 12:15:16;;;;;;;19.13;9.95;;;205.30;2252.80;;;;;;4993920;28;20034;-59
2023/01/31 12:17:49;;;;;;;7.18;3.97;;;205.20;2252.80;;;;;;4994250;28;20036;-64
2023/01/31 12:20:43;;;;;;;12.90;7.78;;;205.20;2252.80;;;;;;4997527;28;20538;-70
2023/01/31 12:23:14;;;;;;;16.27;10.95;;;205.30;2252.80;;;;;;4999580;28;20046;-69
2023/01/31 12:25:51;;;;;;;13.15;6.55;;;205.30;2252.80;;;;;;4992069;28;20479;-61
2023/01/31 12:28:41;;;;;;;26.77;15.48;;;205.40;2252.80;;;;;;4989653;28;20038;-63
2023/01/31 12:31:51;;;;;;;10.02;6.50;;;205.20;2252.80;;;;;;4989578;28;20464;-64